Time;durP1;ratioP1;P1;durP2;ratioP2;P2;SDS_P1;SDS_P2;PMS_P1;PMS_P2;Temp;Humidity;BMP_temperature;BMP_pressure;BME280_temperature;BME280_humidity;BME280_pressure;Samples;Min_cycle;Max_cycle;Signal;HPM_P1;HPM_P2
2024/03/12 00:00:16;;;;;;;89.07;38.22;;;;;;;6.99;100.00;100624.03;5066584;28;20029;-76
2024/03/12 00:02:45;;;;;;;87.72;38.58;;;;;;;6.91;100.00;100631.59;5069590;28;20094;-76
2024/03/12 00:05:15;;;;;;;92.20;38.75;;;;;;;6.96;100.00;100637.97;5070224;28;20035;-77
2024/03/12 00:07:45;;;;;;;96.10;39.80;;;;;;;6.92;100.00;100634.03;5048224;28;20048;-76
2024/03/12 00:10:16;;;;;;;94.78;40.95;;;;;;;6.99;100.00;100642.06;5035903;28;20061;-76
2024/03/12 00:12:44;;;;;;;97.72;41.97;;;;;;;6.93;100.00;100648.59;5049291;28;20051;-75
2024/03/12 00:15:10;;;;;;;98.82;40.97;;;;;;;6.95;100.00;100643.25;5062071;28;20667;-75
2024/03/12 00:17:36;;;;;;;99.65;41.33;;;;;;;6.83;100.00;100647.75;5045378;28;20021;-77
2024/03/12 00:20:05;;;;;;;99.28;43.10;;;;;;;6.93;100.00;100650.31;5065187;28;20048;-76
2024/03/12 00:22:33;;;;;;;103.75;42.92;;;;;;;6.98;100.00;100651.53;5062450;28;20391;-76
2024/03/12 00:24:59;;;;;;;97.97;43.67;;;;;;;6.92;100.00;100659.03;5054956;28;20067;-75
2024/03/12 00:27:25;;;;;;;106.18;45.25;;;;;;;6.89;100.00;100665.25;5033609;28;20036;-75
2024/03/12 00:29:50;;;;;;;109.82;43.75;;;;;;;6.89;100.00;100661.84;5050508;28;20554;-76
2024/03/12 00:32:17;;;;;;;106.80;45.35;;;;;;;6.84;100.00;100667.44;5045240;28;20016;-76
2024/03/12 00:34:43;;;;;;;100.50;43.58;;;;;;;6.96;100.00;100679.22;5034201;28;20043;-76
2024/03/12 00:37:09;;;;;;;104.57;44.25;;;;;;;6.90;100.00;100678.97;5053643;28;20029;-75
2024/03/12 00:39:35;;;;;;;111.93;46.05;;;;;;;6.87;100.00;100676.66;5053641;28;20522;-76
2024/03/12 00:42:02;;;;;;;110.43;47.63;;;;;;;6.82;100.00;100675.28;5045965;28;20029;-76
2024/03/12 00:44:30;;;;;;;110.80;46.25;;;;;;;6.80;100.00;100677.19;5050540;28;20040;-76
2024/03/12 00:46:56;;;;;;;116.53;45.25;;;;;;;6.77;100.00;100680.03;5062122;28;20059;-76
2024/03/12 00:49:21;;;;;;;107.45;44.63;;;;;;;6.74;100.00;100682.91;5065242;28;20062;-76
2024/03/12 00:51:48;;;;;;;106.03;44.40;;;;;;;6.78;100.00;100680.84;5050159;28;20110;-75
2024/03/12 00:54:15;;;;;;;122.65;46.28;;;;;;;6.82;100.00;100687.38;5044314;28;20040;-77
2024/03/12 00:56:41;;;;;;;115.18;47.38;;;;;;;6.83;100.00;100692.38;5044653;28;20056;-76
2024/03/12 00:59:07;;;;;;;116.63;47.08;;;;;;;6.83;100.00;100699.28;5047071;28;20041;-76
2024/03/12 01:01:34;;;;;;;117.30;47.70;;;;;;;6.78;100.00;100702.28;5044634;28;20047;-76
2024/03/12 01:04:00;;;;;;;116.50;47.45;;;;;;;6.82;100.00;100708.00;5049329;28;20415;-77
2024/03/12 01:06:26;;;;;;;120.10;45.40;;;;;;;6.82;100.00;100702.84;5048772;28;20037;-75
2024/03/12 01:08:52;;;;;;;120.68;47.50;;;;;;;6.78;100.00;100701.44;5045279;28;20044;-76
2024/03/12 01:11:17;;;;;;;115.43;45.72;;;;;;;6.76;100.00;100704.19;5045141;28;20028;-77
2024/03/12 01:13:44;;;;;;;112.47;44.28;;;;;;;6.85;100.00;100707.72;5042187;28;20071;-76
2024/03/12 01:16:10;;;;;;;111.60;45.05;;;;;;;6.88;100.00;100704.88;5051835;28;20036;-77
2024/03/12 01:18:35;;;;;;;112.82;45.30;;;;;;;6.74;100.00;100706.09;5045797;28;20029;-76
2024/03/12 01:21:02;;;;;;;107.28;42.45;;;;;;;6.79;100.00;100706.47;5063936;28;20482;-75
2024/03/12 01:23:28;;;;;;;118.45;45.28;;;;;;;6.82;100.00;100713.97;5064918;28;20503;-76
2024/03/12 01:25:53;;;;;;;114.40;43.17;;;;;;;6.77;100.00;100721.25;5068211;28;20032;-76
2024/03/12 01:28:20;;;;;;;104.65;42.20;;;;;;;6.71;100.00;100715.84;5039238;28;20494;-77
2024/03/12 01:30:46;;;;;;;119.78;44.00;;;;;;;6.75;100.00;100715.44;5069341;28;20551;-76
2024/03/12 01:33:12;;;;;;;104.18;43.08;;;;;;;6.77;100.00;100713.53;5053811;28;20115;-76
2024/03/12 01:35:40;;;;;;;101.65;40.88;;;;;;;6.76;100.00;100723.97;5053603;28;20414;-76
2024/03/12 01:38:05;;;;;;;110.03;41.33;;;;;;;6.83;100.00;100725.06;5050460;28;20078;-76
2024/03/12 01:40:31;;;;;;;101.32;40.90;;;;;;;6.80;100.00;100720.19;5066327;28;20028;-76
2024/03/12 01:43:01;;;;;;;104.47;42.42;;;;;;;6.79;100.00;100721.13;5057188;28;20651;-76
2024/03/12 01:45:27;;;;;;;102.50;40.53;;;;;;;6.81;100.00;100726.97;5068432;28;20516;-76
2024/03/12 01:47:58;;;;;;;103.43;40.55;;;;;;;6.83;100.00;100718.16;5032389;28;20064;-76
2024/03/12 01:50:26;;;;;;;99.50;41.05;;;;;;;6.78;100.00;100712.59;5068885;28;20032;-77
2024/03/12 01:52:55;;;;;;;92.10;39.35;;;;;;;6.75;100.00;100712.03;5066358;28;20040;-77
2024/03/12 01:55:21;;;;;;;88.03;38.38;;;;;;;6.68;100.00;100718.69;5068162;28;20383;-75
2024/03/12 01:57:47;;;;;;;92.13;36.92;;;;;;;6.82;100.00;100728.63;5052631;28;20036;-77
2024/03/12 02:00:14;;;;;;;81.93;38.35;;;;;;;6.75;100.00;100722.34;5039020;28;20612;-76
2024/03/12 02:02:44;;;;;;;84.80;36.00;;;;;;;6.78;100.00;100722.91;5049452;28;20064;-78
2024/03/12 02:05:10;;;;;;;80.25;33.83;;;;;;;6.78;100.00;100722.06;5036670;28;20036;-76
2024/03/12 02:07:38;;;;;;;81.78;33.95;;;;;;;6.69;100.00;100723.69;5051943;28;20041;-76
2024/03/12 02:10:05;;;;;;;75.80;32.65;;;;;;;6.67;100.00;100729.91;5053458;28;20032;-76
2024/03/12 02:12:31;;;;;;;80.07;34.30;;;;;;;6.72;100.00;100736.31;5067581;28;20058;-78
2024/03/12 02:15:02;;;;;;;68.20;32.65;;;;;;;6.80;100.00;100741.63;5049975;28;20495;-76
2024/03/12 02:17:28;;;;;;;75.65;32.80;;;;;;;6.75;100.00;100735.25;5033614;28;20487;-76
2024/03/12 02:19:53;;;;;;;71.28;32.22;;;;;;;6.70;100.00;100740.78;5050475;28;20074;-77
2024/03/12 02:22:18;;;;;;;67.35;31.05;;;;;;;6.70;100.00;100745.13;5066807;28;20032;-76
2024/03/12 02:24:46;;;;;;;70.57;30.98;;;;;;;6.61;100.00;100742.41;5049441;28;21777;-76
2024/03/12 02:27:12;;;;;;;60.90;28.02;;;;;;;6.73;100.00;100750.03;5037938;28;20061;-76
2024/03/12 02:29:38;;;;;;;64.18;28.80;;;;;;;6.62;100.00;100746.59;5050086;28;20553;-77
2024/03/12 02:32:04;;;;;;;68.00;31.55;;;;;;;6.63;100.00;100753.38;5067028;28;20387;-75
2024/03/12 02:34:29;;;;;;;63.63;30.50;;;;;;;6.71;100.00;100747.56;5066004;28;20400;-77
2024/03/12 02:36:54;;;;;;;60.53;28.70;;;;;;;6.67;100.00;100758.25;5050775;28;20028;-75
2024/03/12 02:39:21;;;;;;;59.20;28.65;;;;;;;6.70;100.00;100758.00;5066754;28;20041;-75
2024/03/12 02:41:46;;;;;;;65.38;29.48;;;;;;;6.66;100.00;100760.03;5047746;28;20032;-76
2024/03/12 02:44:12;;;;;;;62.35;27.67;;;;;;;6.76;100.00;100765.22;5047560;28;20044;-78
2024/03/12 02:46:37;;;;;;;53.58;26.05;;;;;;;6.75;100.00;100768.75;5043249;28;20495;-77
2024/03/12 02:49:03;;;;;;;56.10;25.52;;;;;;;6.66;100.00;100769.53;5062497;28;20491;-76
2024/03/12 02:51:28;;;;;;;51.80;23.58;;;;;;;6.67;100.00;100771.16;5064885;28;20036;-76
2024/03/12 02:53:54;;;;;;;50.42;24.02;;;;;;;6.67;100.00;100774.56;5047913;28;20041;-76
2024/03/12 02:56:19;;;;;;;50.30;23.23;;;;;;;6.65;100.00;100780.78;5050844;28;20043;-77
2024/03/12 02:58:47;;;;;;;43.58;21.40;;;;;;;6.58;100.00;100777.91;5028221;28;20033;-76
2024/03/12 03:01:14;;;;;;;43.20;21.08;;;;;;;6.56;100.00;100785.78;5054431;28;20032;-75
2024/03/12 03:03:39;;;;;;;37.10;19.67;;;;;;;6.51;100.00;100775.03;5049089;28;20039;-76
2024/03/12 03:06:06;;;;;;;42.70;21.00;;;;;;;6.52;100.00;100779.25;5035982;28;20033;-75
2024/03/12 03:08:31;;;;;;;45.30;21.52;;;;;;;6.49;100.00;100778.69;5066281;28;20511;-76
2024/03/12 03:10:57;;;;;;;41.97;20.48;;;;;;;6.54;100.00;100776.56;5040452;28;20089;-76
2024/03/12 03:13:22;;;;;;;42.85;20.15;;;;;;;6.47;100.00;100783.97;5051561;28;20090;-76
2024/03/12 03:15:48;;;;;;;47.22;22.05;;;;;;;6.54;100.00;100777.34;5067857;28;21162;-77
2024/03/12 03:18:13;;;;;;;41.65;20.30;;;;;;;6.50;100.00;100782.88;5052076;28;20034;-77
2024/03/12 03:20:39;;;;;;;43.30;20.42;;;;;;;6.42;100.00;100788.69;5067618;28;20032;-76
2024/03/12 03:23:04;;;;;;;44.60;20.92;;;;;;;6.49;100.00;100787.22;5065694;28;20036;-76
2024/03/12 03:25:30;;;;;;;38.83;19.33;;;;;;;6.41;100.00;100790.44;5067231;28;20032;-76
2024/03/12 03:27:55;;;;;;;46.42;22.17;;;;;;;6.37;100.00;100801.16;5063786;28;20044;-77
2024/03/12 03:30:21;;;;;;;47.40;22.00;;;;;;;6.46;100.00;100796.97;5065601;28;20040;-77
2024/03/12 03:32:47;;;;;;;40.95;21.13;;;;;;;6.55;100.00;100801.34;5032997;28;20037;-76
2024/03/12 03:35:13;;;;;;;48.40;23.30;;;;;;;6.49;100.00;100794.94;5058137;28;20082;-75
2024/03/12 03:37:41;;;;;;;47.63;21.33;;;;;;;6.45;100.00;100797.94;5063144;28;20472;-76
2024/03/12 03:40:10;;;;;;;42.58;20.42;;;;;;;6.41;100.00;100808.47;5053998;28;20548;-77
2024/03/12 03:42:39;;;;;;;45.95;22.42;;;;;;;6.49;100.00;100807.03;5032529;28;20029;-77
2024/03/12 03:45:05;;;;;;;46.88;23.02;;;;;;;6.41;100.00;100811.06;5044777;28;20721;-76
2024/03/12 03:47:36;;;;;;;46.78;23.52;;;;;;;6.43;100.00;100809.16;5064450;28;20028;-76
2024/03/12 03:50:03;;;;;;;46.13;22.58;;;;;;;6.41;100.00;100807.69;5062563;28;20028;-77
2024/03/12 03:52:29;;;;;;;44.10;23.00;;;;;;;6.40;100.00;100818.91;5066711;28;20455;-77
2024/03/12 03:54:54;;;;;;;47.90;22.63;;;;;;;6.42;100.00;100823.00;5056420;28;20074;-77
2024/03/12 03:57:20;;;;;;;49.05;23.25;;;;;;;6.42;100.00;100824.75;5053397;28;20090;-75
2024/03/12 03:59:46;;;;;;;44.80;23.27;;;;;;;6.48;100.00;100828.56;5050062;28;20098;-77
2024/03/12 04:02:12;;;;;;;47.42;23.90;;;;;;;6.47;100.00;100835.50;5051447;28;20609;-75
2024/03/12 04:04:38;;;;;;;47.72;22.70;;;;;;;6.38;100.00;100833.69;5037502;28;20043;-76
2024/03/12 04:07:04;;;;;;;48.35;23.33;;;;;;;6.41;100.00;100839.41;5052965;28;20032;-77
2024/03/12 04:09:30;;;;;;;55.90;24.55;;;;;;;6.36;100.00;100846.69;5052049;28;20035;-78
2024/03/12 04:11:56;;;;;;;51.38;23.35;;;;;;;6.43;100.00;100842.66;5050584;28;20028;-77
2024/03/12 04:14:23;;;;;;;48.45;23.67;;;;;;;6.38;100.00;100856.84;5045924;28;20032;-77
2024/03/12 04:16:48;;;;;;;47.30;22.77;;;;;;;6.41;100.00;100860.00;5049612;28;20032;-76
2024/03/12 04:19:14;;;;;;;48.95;23.23;;;;;;;6.42;100.00;100856.50;5066027;28;20047;-76
2024/03/12 04:21:40;;;;;;;44.88;22.35;;;;;;;6.38;100.00;100852.50;5050456;28;20070;-77
2024/03/12 04:24:06;;;;;;;45.28;22.13;;;;;;;6.43;100.00;100854.72;5063390;28;20041;-77
2024/03/12 04:26:31;;;;;;;49.28;23.17;;;;;;;6.42;100.00;100861.66;5065390;28;21564;-76
2024/03/12 04:28:57;;;;;;;47.70;22.88;;;;;;;6.38;100.00;100867.97;5051651;28;20056;-77
2024/03/12 04:31:23;;;;;;;44.00;22.75;;;;;;;6.38;100.00;100869.75;5042964;28;20082;-77
2024/03/12 04:33:52;;;;;;;47.72;24.50;;;;;;;6.32;100.00;100873.63;5048047;28;20554;-76
2024/03/12 04:36:22;;;;;;;47.08;23.80;;;;;;;6.40;100.00;100878.16;5048521;28;20043;-80
2024/03/12 04:38:49;;;;;;;50.58;24.00;;;;;;;6.46;100.00;100876.84;5048381;28;20046;-76
2024/03/12 04:41:17;;;;;;;42.83;22.17;;;;;;;6.47;100.00;100886.19;5067394;28;20549;-76
2024/03/12 04:43:42;;;;;;;44.85;22.17;;;;;;;6.41;100.00;100887.53;5055077;28;20420;-75
2024/03/12 04:46:09;;;;;;;46.83;22.48;;;;;;;6.38;100.00;100882.63;5053827;28;20033;-78
2024/03/12 04:48:35;;;;;;;41.35;22.33;;;;;;;6.44;100.00;100884.69;5045240;28;20037;-75
2024/03/12 04:51:01;;;;;;;39.70;20.77;;;;;;;6.40;100.00;100885.88;5052782;28;20037;-76
2024/03/12 04:53:27;;;;;;;34.60;19.73;;;;;;;6.50;100.00;100897.06;5048739;28;20051;-77
2024/03/12 04:55:52;;;;;;;41.92;22.35;;;;;;;6.44;100.00;100892.41;5054188;28;20040;-76
2024/03/12 04:58:18;;;;;;;41.28;20.27;;;;;;;6.55;100.00;100900.06;5052248;28;20731;-75
2024/03/12 05:00:43;;;;;;;37.92;20.27;;;;;;;6.50;100.00;100906.53;5055333;28;20029;-77
2024/03/12 05:03:08;;;;;;;44.28;21.60;;;;;;;6.35;100.00;100904.31;5059370;28;20025;-77
2024/03/12 05:05:34;;;;;;;43.78;22.50;;;;;;;6.34;100.00;100912.16;5057100;28;20047;-76
2024/03/12 05:07:59;;;;;;;47.17;22.75;;;;;;;6.33;100.00;100913.91;5054243;28;20055;-76
2024/03/12 05:10:26;;;;;;;47.30;21.90;;;;;;;6.40;100.00;100917.63;5055839;28;20024;-77
2024/03/12 05:12:51;;;;;;;48.08;22.20;;;;;;;6.35;100.00;100921.53;5055636;28;20040;-77
2024/03/12 05:15:17;;;;;;;42.05;22.17;;;;;;;6.37;100.00;100924.78;5057139;28;20059;-77
2024/03/12 05:17:45;;;;;;;45.55;22.92;;;;;;;6.47;100.00;100923.09;5059468;28;20036;-78
2024/03/12 05:20:14;;;;;;;43.42;21.40;;;;;;;6.33;100.00;100929.38;5054177;28;20111;-78
2024/03/12 05:22:40;;;;;;;40.53;21.42;;;;;;;6.28;100.00;100933.25;5048906;28;20036;-78
2024/03/12 05:25:09;;;;;;;47.15;22.25;;;;;;;6.26;100.00;100935.16;5041908;28;20403;-76
2024/03/12 05:27:37;;;;;;;40.45;20.90;;;;;;;6.25;100.00;100939.47;5055476;28;20017;-77
2024/03/12 05:30:10;;;;;;;39.20;20.50;;;;;;;6.33;100.00;100938.84;5055111;28;20498;-76
2024/03/12 05:32:43;;;;;;;40.08;20.02;;;;;;;6.39;100.00;100940.94;5037274;28;20055;-77
2024/03/12 05:35:22;;;;;;;35.13;18.30;;;;;;;6.38;100.00;100940.09;5038492;28;20394;-76
2024/03/12 05:38:01;;;;;;;35.40;19.02;;;;;;;6.34;100.00;100945.63;5067669;28;20054;-78
2024/03/12 05:40:42;;;;;;;40.22;19.17;;;;;;;6.27;100.00;100954.78;5068068;28;20040;-76
2024/03/12 05:48:40;;;;;;;39.30;20.10;;;;;;;6.33;100.00;100962.84;5051097;28;20568;-77
2024/03/12 05:51:07;;;;;;;41.30;20.63;;;;;;;6.29;100.00;100963.22;5067242;28;20033;-78
2024/03/12 05:53:33;;;;;;;42.80;20.85;;;;;;;6.30;100.00;100970.81;5054019;28;20042;-77
2024/03/12 05:55:59;;;;;;;42.38;21.90;;;;;;;6.31;100.00;100971.63;5055806;28;20028;-78
2024/03/12 05:58:25;;;;;;;46.80;23.52;;;;;;;6.29;100.00;100978.66;5057642;28;20039;-78
2024/03/12 06:00:51;;;;;;;45.97;22.98;;;;;;;6.27;100.00;100975.41;5052461;28;20098;-76
2024/03/12 06:03:17;;;;;;;48.00;24.35;;;;;;;6.26;100.00;100978.94;5057678;28;20380;-77
2024/03/12 06:05:44;;;;;;;55.65;24.83;;;;;;;6.19;100.00;100976.81;5054230;28;20025;-79
2024/03/12 06:08:09;;;;;;;58.15;25.30;;;;;;;6.24;100.00;100982.44;5050702;28;20040;-77
2024/03/12 06:10:35;;;;;;;48.03;24.20;;;;;;;6.17;100.00;100981.28;5040672;28;20455;-78
2024/03/12 06:13:00;;;;;;;52.65;23.67;;;;;;;6.15;100.00;100987.50;5055729;28;20040;-77
2024/03/12 06:15:26;;;;;;;54.08;25.58;;;;;;;6.29;100.00;100989.81;5038769;28;20025;-77
2024/03/12 06:17:51;;;;;;;55.75;24.10;;;;;;;6.31;100.00;100987.09;5052537;28;20518;-78
2024/03/12 06:20:17;;;;;;;49.92;24.40;;;;;;;6.24;100.00;100999.66;5038727;28;20474;-77
2024/03/12 06:22:43;;;;;;;49.05;24.75;;;;;;;6.34;100.00;101005.69;5056055;28;20037;-77
2024/03/12 06:25:10;;;;;;;53.85;23.33;;;;;;;6.30;100.00;101006.06;5069550;28;20034;-76
2024/03/12 06:27:38;;;;;;;53.47;24.38;;;;;;;6.20;100.00;101017.09;5047775;28;20053;-77
2024/03/12 06:30:05;;;;;;;57.80;25.30;;;;;;;6.16;100.00;101014.88;5067963;28;20517;-77
2024/03/12 06:32:32;;;;;;;49.95;23.55;;;;;;;6.24;100.00;101015.91;5064883;28;20028;-77
2024/03/12 06:34:57;;;;;;;66.78;24.42;;;;;;;6.26;100.00;101023.53;5052604;28;20033;-77
2024/03/12 06:37:25;;;;;;;54.78;22.63;;;;;;;6.28;100.00;101028.56;5048274;28;20036;-77
2024/03/12 06:39:52;;;;;;;55.92;24.50;;;;;;;6.20;100.00;101029.16;5052186;28;20151;-77
2024/03/12 06:42:19;;;;;;;57.70;23.00;;;;;;;6.24;100.00;101027.97;5050753;28;20119;-76
2024/03/12 06:44:48;;;;;;;59.45;23.92;;;;;;;6.19;100.00;101032.66;5066620;28;20625;-77
2024/03/12 06:47:14;;;;;;;55.65;24.67;;;;;;;6.28;100.00;101037.09;5066238;28;20119;-77
2024/03/12 06:49:44;;;;;;;77.47;31.80;;;;;;;6.22;100.00;101040.97;5035622;28;20120;-76
2024/03/12 06:52:10;;;;;;;56.10;25.08;;;;;;;6.24;100.00;101046.00;5067138;28;20028;-77
2024/03/12 06:54:36;;;;;;;51.83;22.70;;;;;;;6.12;100.00;101052.09;5052525;28;20042;-77
2024/03/12 06:57:04;;;;;;;52.92;21.92;;;;;;;6.05;100.00;101054.38;5056368;28;20040;-79
2024/03/12 06:59:32;;;;;;;52.58;21.98;;;;;;;6.07;100.00;101056.81;5050763;28;20040;-77
2024/03/12 07:01:57;;;;;;;55.45;23.27;;;;;;;6.13;100.00;101064.06;5038135;28;20430;-77
2024/03/12 07:04:23;;;;;;;50.30;22.52;;;;;;;6.16;100.00;101056.06;5066691;28;20040;-77
2024/03/12 07:06:51;;;;;;;51.25;22.15;;;;;;;6.18;100.00;101074.81;5066207;28;20031;-77
2024/03/12 07:09:26;;;;;;;54.70;22.88;;;;;;;6.15;100.00;101072.47;5036050;28;20478;-78
2024/03/12 07:11:58;;;;;;;53.92;23.10;;;;;;;6.12;100.00;101068.41;5053290;28;20028;-76
2024/03/12 07:14:27;;;;;;;53.35;21.67;;;;;;;6.14;100.00;101079.38;5056210;28;20028;-77
2024/03/12 07:16:54;;;;;;;48.33;22.33;;;;;;;6.13;100.00;101076.94;5063681;28;20036;-77
2024/03/12 07:19:22;;;;;;;56.35;23.27;;;;;;;6.21;100.00;101083.09;5047080;28;20430;-77
2024/03/12 07:21:48;;;;;;;49.88;21.58;;;;;;;6.19;100.00;101081.59;5064239;28;20036;-77
2024/03/12 07:24:15;;;;;;;55.55;23.10;;;;;;;6.21;100.00;101083.09;5049788;28;20119;-76
2024/03/12 07:26:40;;;;;;;54.72;23.70;;;;;;;6.21;100.00;101087.44;5020477;28;20044;-77
2024/03/12 07:29:09;;;;;;;50.20;21.40;;;;;;;6.33;100.00;101083.06;5065618;28;20098;-76
2024/03/12 07:31:35;;;;;;;58.55;22.42;;;;;;;6.21;100.00;101085.66;5051239;28;20488;-76
2024/03/12 07:34:01;;;;;;;56.13;23.38;;;;;;;6.29;100.00;101094.56;5048758;28;20036;-76
2024/03/12 07:36:31;;;;;;;44.22;20.63;;;;;;;6.30;100.00;101094.44;5054532;28;20048;-78
2024/03/12 07:38:59;;;;;;;56.53;24.27;;;;;;;6.26;100.00;101098.22;5061469;28;20118;-76
2024/03/12 07:41:25;;;;;;;51.63;22.35;;;;;;;6.32;100.00;101092.56;5065195;28;20040;-77
2024/03/12 07:43:51;;;;;;;57.08;23.50;;;;;;;6.29;100.00;101100.56;5027506;28;20044;-76
2024/03/12 07:46:19;;;;;;;58.28;23.73;;;;;;;6.35;100.00;101102.63;5048890;28;20036;-76
2024/03/12 07:48:45;;;;;;;51.95;23.30;;;;;;;6.32;100.00;101104.63;5056087;28;20037;-79
2024/03/12 07:51:10;;;;;;;63.60;24.80;;;;;;;6.44;100.00;101111.38;5060654;28;20032;-77
2024/03/12 07:53:36;;;;;;;55.38;25.15;;;;;;;6.40;100.00;101112.56;5032250;28;20494;-77
2024/03/12 07:56:06;;;;;;;56.58;25.58;;;;;;;6.34;100.00;101113.06;5050991;28;20036;-77
2024/03/12 07:58:33;;;;;;;66.47;28.00;;;;;;;6.36;100.00;101109.41;5035947;28;20045;-79
2024/03/12 08:00:59;;;;;;;49.92;24.15;;;;;;;6.46;100.00;101119.84;5037856;28;20056;-76
2024/03/12 08:03:24;;;;;;;57.20;26.92;;;;;;;6.53;100.00;101115.00;5052601;28;21930;-77
2024/03/12 08:05:50;;;;;;;59.90;26.02;;;;;;;6.45;100.00;101122.53;5062397;28;20039;-78
2024/03/12 08:08:15;;;;;;;54.72;26.40;;;;;;;6.49;100.00;101118.75;5055575;28;20040;-76
2024/03/12 08:10:41;;;;;;;59.25;25.80;;;;;;;6.54;100.00;101121.78;5052172;28;20036;-76
2024/03/12 08:13:06;;;;;;;62.05;27.83;;;;;;;6.51;100.00;101129.75;5066862;28;20080;-76
2024/03/12 08:15:32;;;;;;;69.45;27.75;;;;;;;6.52;100.00;101118.53;5053610;28;20114;-77
2024/03/12 08:17:57;;;;;;;62.50;27.45;;;;;;;6.61;100.00;101123.75;5067027;28;20048;-76
2024/03/12 08:20:23;;;;;;;56.17;25.90;;;;;;;6.54;100.00;101129.53;5053504;28;20044;-76
2024/03/12 08:22:49;;;;;;;60.10;26.27;;;;;;;6.53;100.00;101136.41;5038933;28;20065;-76
2024/03/12 08:25:16;;;;;;;65.60;27.83;;;;;;;6.56;100.00;101137.94;5051209;28;20056;-77
2024/03/12 08:27:42;;;;;;;61.63;27.60;;;;;;;6.56;100.00;101141.34;5066054;28;20089;-76
2024/03/12 08:30:08;;;;;;;63.90;27.30;;;;;;;6.61;100.00;101135.81;5051946;28;20037;-76
2024/03/12 08:32:37;;;;;;;64.03;28.58;;;;;;;6.63;100.00;101137.34;5051493;28;20025;-76
2024/03/12 08:35:03;;;;;;;63.38;27.77;;;;;;;6.64;100.00;101140.72;5054697;28;20029;-76
2024/03/12 08:37:29;;;;;;;68.95;26.70;;;;;;;6.72;100.00;101146.06;5055492;28;20029;-76
2024/03/12 08:39:55;;;;;;;60.55;26.52;;;;;;;6.68;100.00;101146.47;5034415;28;20494;-76
2024/03/12 08:42:21;;;;;;;61.20;27.35;;;;;;;6.70;100.00;101153.13;5057703;28;20087;-76
2024/03/12 08:44:47;;;;;;;67.88;29.00;;;;;;;6.69;100.00;101156.66;5066230;28;20024;-76
2024/03/12 08:47:13;;;;;;;64.80;27.23;;;;;;;6.67;100.00;101153.38;5056057;28;20041;-76
2024/03/12 08:49:39;;;;;;;63.63;26.67;;;;;;;6.65;100.00;101147.53;5050452;28;20044;-76
2024/03/12 08:52:04;;;;;;;67.93;28.33;;;;;;;6.69;100.00;101159.22;5045730;28;20549;-76
2024/03/12 08:54:31;;;;;;;66.70;27.55;;;;;;;6.76;100.00;101162.13;5050618;28;20032;-76
2024/03/12 08:56:56;;;;;;;60.47;26.90;;;;;;;6.75;100.00;101168.22;5066113;28;20036;-76
2024/03/12 08:59:22;;;;;;;63.38;27.10;;;;;;;6.83;100.00;101156.34;5053800;28;20033;-76
2024/03/12 09:01:49;;;;;;;67.07;27.13;;;;;;;6.77;100.00;101167.16;5072321;28;20040;-76
2024/03/12 09:04:14;;;;;;;65.18;27.67;;;;;;;6.83;100.00;101173.59;5048171;28;20044;-77
2024/03/12 09:06:40;;;;;;;61.85;26.58;;;;;;;6.77;100.00;101172.31;5052632;28;20024;-77
2024/03/12 09:09:09;;;;;;;69.88;29.10;;;;;;;6.82;100.00;101171.97;5049176;28;20123;-77
2024/03/12 09:11:34;;;;;;;60.03;26.60;;;;;;;6.90;100.00;101166.19;5037921;28;20103;-77
2024/03/12 09:14:00;;;;;;;65.82;28.02;;;;;;;7.01;100.00;101171.31;5044591;28;21987;-76
2024/03/12 09:16:26;;;;;;;62.50;26.45;;;;;;;6.98;100.00;101166.38;5065335;28;20033;-77
2024/03/12 09:18:53;;;;;;;56.30;24.75;;;;;;;6.94;100.00;101172.75;5054841;28;20518;-77
2024/03/12 09:21:20;;;;;;;59.22;26.27;;;;;;;6.93;100.00;101176.25;5057999;28;20411;-76
2024/03/12 09:23:46;;;;;;;61.80;27.35;;;;;;;6.87;100.00;101180.13;5054167;28;20044;-76
2024/03/12 09:26:12;;;;;;;66.35;27.73;;;;;;;6.88;100.00;101179.19;5050809;28;20024;-77
2024/03/12 09:28:37;;;;;;;63.92;26.95;;;;;;;6.98;100.00;101185.25;5064694;28;20040;-76
2024/03/12 09:31:08;;;;;;;61.00;26.90;;;;;;;6.95;100.00;101184.66;5054525;28;20117;-76
2024/03/12 09:33:34;;;;;;;62.60;26.10;;;;;;;6.93;100.00;101194.28;5064172;28;20060;-76
2024/03/12 09:36:00;;;;;;;56.60;25.30;;;;;;;6.89;100.00;101191.13;5064729;28;20056;-76
2024/03/12 09:38:26;;;;;;;58.20;25.02;;;;;;;6.92;100.00;101188.31;5067283;28;20487;-76
2024/03/12 09:40:54;;;;;;;50.63;23.63;;;;;;;6.87;100.00;101194.78;5035640;28;20089;-77
2024/03/12 09:43:21;;;;;;;46.97;22.20;;;;;;;6.85;100.00;101194.09;5062961;28;20060;-76
2024/03/12 09:45:47;;;;;;;65.15;25.92;;;;;;;6.75;100.00;101199.16;5067063;28;20024;-77
2024/03/12 09:48:16;;;;;;;54.45;25.38;;;;;;;6.79;100.00;101203.94;5056769;28;20032;-77
2024/03/12 09:50:42;;;;;;;53.50;23.65;;;;;;;6.85;100.00;101206.97;5058834;28;20040;-77
2024/03/12 09:53:11;;;;;;;59.25;24.05;;;;;;;6.90;100.00;101205.69;5068997;28;20041;-77
2024/03/12 09:55:38;;;;;;;56.58;23.55;;;;;;;6.95;100.00;101205.28;5069979;28;20040;-76
2024/03/12 09:58:06;;;;;;;53.63;23.13;;;;;;;6.97;100.00;101206.03;5054698;28;20047;-77
2024/03/12 10:00:33;;;;;;;58.92;23.63;;;;;;;6.89;100.00;101203.22;5070330;28;20037;-77
2024/03/12 10:02:59;;;;;;;50.78;22.85;;;;;;;6.98;100.00;101210.22;5052435;28;20410;-78
2024/03/12 10:05:25;;;;;;;54.15;23.05;;;;;;;7.06;100.00;101209.59;5050801;28;20036;-75
2024/03/12 10:08:06;;;;;;;50.05;22.98;;;;;;;7.05;100.00;101206.22;5053561;28;20040;-76
2024/03/12 10:10:33;;;;;;;48.03;22.27;;;;;;;7.07;100.00;101209.50;5053851;28;20033;-78
2024/03/12 10:12:59;;;;;;;50.50;23.10;;;;;;;7.14;100.00;101215.78;5067039;28;20484;-76
2024/03/12 10:15:24;;;;;;;53.00;23.10;;;;;;;7.12;100.00;101207.38;5035409;28;20050;-75
2024/03/12 10:18:00;;;;;;;56.78;24.52;;;;;;;7.25;100.00;101214.09;5055050;28;20519;-76
2024/03/12 10:20:26;;;;;;;51.03;23.60;;;;;;;7.30;100.00;101207.63;5054883;28;20036;-76
2024/03/12 10:23:09;;;;;;;51.95;24.33;;;;;;;7.25;100.00;101203.78;5049920;28;20028;-76
2024/03/12 10:25:38;;;;;;;53.63;25.27;;;;;;;7.36;100.00;101201.16;5051524;28;20032;-75
2024/03/12 10:28:07;;;;;;;77.38;34.03;;;;;;;7.63;100.00;101208.41;5067020;28;20094;-77
2024/03/12 10:30:33;;;;;;;69.63;29.27;;;;;;;7.73;100.00;101198.94;5065934;28;20397;-78
2024/03/12 10:33:12;;;;;;;69.65;29.40;;;;;;;7.98;100.00;101202.06;5065630;28;20047;-76
2024/03/12 10:35:38;;;;;;;74.22;33.40;;;;;;;8.15;100.00;101201.44;5052292;28;20115;-76
2024/03/12 10:38:06;;;;;;;64.63;27.90;;;;;;;8.09;100.00;101207.13;5052001;28;20112;-77
2024/03/12 10:40:32;;;;;;;83.05;39.22;;;;;;;8.01;100.00;101204.38;5054014;28;20506;-78
2024/03/12 10:42:58;;;;;;;63.90;29.42;;;;;;;8.12;100.00;101208.66;5046361;28;20055;-76
2024/03/12 10:45:24;;;;;;;75.85;32.70;;;;;;;8.05;100.00;101204.94;5050521;28;20090;-78
2024/03/12 10:47:50;;;;;;;83.95;37.85;;;;;;;7.97;100.00;101201.25;5049026;28;20037;-77
2024/03/12 10:50:17;;;;;;;92.57;37.13;;;;;;;7.90;100.00;101205.28;5049648;28;20032;-77
2024/03/12 10:52:45;;;;;;;77.50;33.83;;;;;;;7.91;100.00;101214.69;5046637;28;20340;-76
2024/03/12 10:55:21;;;;;;;92.80;41.33;;;;;;;7.90;100.00;101212.22;5067636;28;20032;-78
2024/03/12 10:57:54;;;;;;;106.93;45.75;;;;;;;7.79;100.00;101210.53;5040165;28;20665;-77
2024/03/12 11:00:21;;;;;;;81.40;35.55;;;;;;;7.83;100.00;101213.66;5044996;28;20036;-76
2024/03/12 11:02:50;;;;;;;60.97;28.15;;;;;;;7.88;100.00;101222.66;5046656;28;20048;-76
2024/03/12 11:05:19;;;;;;;61.28;28.52;;;;;;;7.95;100.00;101216.03;5054349;28;20036;-76
2024/03/12 11:07:45;;;;;;;69.85;32.20;;;;;;;7.98;100.00;101220.94;5066563;28;20159;-77
2024/03/12 11:10:12;;;;;;;59.65;28.70;;;;;;;7.91;100.00;101221.56;5050651;28;20060;-76
2024/03/12 11:12:38;;;;;;;74.80;34.80;;;;;;;7.96;100.00;101224.59;5062896;28;20036;-77